UAE420 OMDB-YPPH
Flight info
| Callsign | UAE420 |
|---|---|
| Flight time | N/A |
| Altitude | 31000 |
| Route | ANVIX L223 TARDI N629 GIDAN P570 KITAL L894 BIBGO DCT LAVOX/N0505F330 DCT KADAP DCT 0500S08730E DCT BEBIM/N0497F350 DCT 15S100E 18S105E DCT WONSA DCT CAR B469 TOPIR/N0482F360 L514 AVPAL Q38 JULIM |
| Aircraft | B77W/H-SDE1E2E3FGHIJ2J3J4J5M1RWXY/LB1D1 |
Departure
| Time | 2026-05-03 20:31 |
|---|---|
| Airport | Dubai International Airport (OMDB) |
Arrival
| Time | N/A |
|---|---|
| Airport | Perth International Airport (YPPH) |
| Time | Latitude | Longitude | Altitude | Speed | Heading |
|---|---|---|---|---|---|
| 2026-05-03 20:15 | 25.24119 | 55.37401 | 46 ft | 0 kts | 31° |
| 2026-05-03 20:19 | 25.24115 | 55.37398 | 46 ft | 2 kts | 31° |
| 2026-05-03 20:19 | 25.24102 | 55.37389 | 46 ft | 2 kts | 31° |
| 2026-05-03 20:20 | 25.24089 | 55.37381 | 46 ft | 2 kts | 31° |
| 2026-05-03 20:20 | 25.24076 | 55.37372 | 46 ft | 2 kts | 34° |
| 2026-05-03 20:20 | 25.24064 | 55.37361 | 46 ft | 2 kts | 54° |
| 2026-05-03 20:20 | 25.24057 | 55.37347 | 46 ft | 2 kts | 71° |
| 2026-05-03 20:21 | 25.24054 | 55.37331 | 46 ft | 2 kts | 86° |
| 2026-05-03 20:21 | 25.24055 | 55.37314 | 46 ft | 2 kts | 103° |
| 2026-05-03 20:21 | 25.24059 | 55.37299 | 46 ft | 1 kts | 118° |
| 2026-05-03 20:21 | 25.24063 | 55.37293 | 46 ft | 0 kts | 122° |
| 2026-05-03 20:23 | 25.24059 | 55.37299 | 46 ft | 2 kts | 121° |
| 2026-05-03 20:24 | 25.24041 | 55.37332 | 46 ft | 7 kts | 121° |
| 2026-05-03 20:24 | 25.24010 | 55.37388 | 46 ft | 10 kts | 121° |
| 2026-05-03 20:24 | 25.23977 | 55.37472 | 46 ft | 13 kts | 102° |
| 2026-05-03 20:24 | 25.24003 | 55.37580 | 46 ft | 16 kts | 51° |
| 2026-05-03 20:25 | 25.24088 | 55.37649 | 46 ft | 14 kts | 32° |
| 2026-05-03 20:25 | 25.24164 | 55.37701 | 46 ft | 11 kts | 31° |
| 2026-05-03 20:25 | 25.24225 | 55.37742 | 46 ft | 9 kts | 32° |
| 2026-05-03 20:25 | 25.24272 | 55.37775 | 46 ft | 7 kts | 32° |
| 2026-05-03 20:26 | 25.24308 | 55.37800 | 46 ft | 4 kts | 33° |
| 2026-05-03 20:26 | 25.24324 | 55.37812 | 46 ft | 1 kts | 33° |
| 2026-05-03 20:26 | 25.24334 | 55.37819 | 46 ft | 1 kts | 33° |
| 2026-05-03 20:26 | 25.24348 | 55.37828 | 46 ft | 3 kts | 33° |
| 2026-05-03 20:27 | 25.24375 | 55.37849 | 46 ft | 6 kts | 34° |
| 2026-05-03 20:27 | 25.24424 | 55.37886 | 46 ft | 10 kts | 34° |
| 2026-05-03 20:27 | 25.24483 | 55.37929 | 46 ft | 9 kts | 33° |
| 2026-05-03 20:27 | 25.24530 | 55.37964 | 46 ft | 7 kts | 34° |
| 2026-05-03 20:28 | 25.24565 | 55.37991 | 45 ft | 5 kts | 34° |
| 2026-05-03 20:28 | 25.24591 | 55.38010 | 45 ft | 3 kts | 34° |
| 2026-05-03 20:28 | 25.24607 | 55.38022 | 45 ft | 1 kts | 34° |
| 2026-05-03 20:28 | 25.24611 | 55.38026 | 46 ft | 0 kts | 33° |
| 2026-05-03 20:29 | 25.24616 | 55.38029 | 45 ft | 2 kts | 33° |
| 2026-05-03 20:29 | 25.24643 | 55.38049 | 46 ft | 7 kts | 32° |
| 2026-05-03 20:29 | 25.24703 | 55.38090 | 45 ft | 12 kts | 30° |
| 2026-05-03 20:30 | 25.24771 | 55.38083 | 45 ft | 10 kts | 312° |
| 2026-05-03 20:30 | 25.24841 | 55.37965 | 45 ft | 38 kts | 302° |
| 2026-05-03 20:30 | 25.25107 | 55.37484 | 46 ft | 105 kts | 301° |
| 2026-05-03 20:30 | 25.25598 | 55.36598 | 46 ft | 165 kts | 301° |
| 2026-05-03 20:31 | 25.26285 | 55.35361 | 146 ft | 207 kts | 301° |
| 2026-05-03 20:31 | 25.27024 | 55.33995 | 870 ft | 207 kts | 300° |
| 2026-05-03 20:31 | 25.27731 | 55.32693 | 1960 ft | 190 kts | 301° |
| 2026-05-03 20:31 | 25.28394 | 55.31519 | 2535 ft | 185 kts | 301° |
| 2026-05-03 20:32 | 25.28926 | 55.30215 | 2860 ft | 189 kts | 284° |
| 2026-05-03 20:32 | 25.29055 | 55.28752 | 3108 ft | 202 kts | 267° |
| 2026-05-03 20:32 | 25.28691 | 55.27177 | 3284 ft | 222 kts | 247° |
| 2026-05-03 20:32 | 25.27972 | 55.25632 | 3708 ft | 228 kts | 246° |
| 2026-05-03 20:33 | 25.27261 | 55.24049 | 4247 ft | 229 kts | 248° |
| 2026-05-03 20:33 | 25.26583 | 55.22471 | 4762 ft | 231 kts | 249° |
| 2026-05-03 20:33 | 25.25898 | 55.20861 | 5305 ft | 232 kts | 249° |
| 2026-05-03 20:33 | 25.25208 | 55.19265 | 5804 ft | 234 kts | 244° |
| 2026-05-03 20:34 | 25.24168 | 55.17865 | 6237 ft | 244 kts | 223° |
| 2026-05-03 20:34 | 25.22652 | 55.16946 | 6669 ft | 256 kts | 201° |
| 2026-05-03 20:34 | 25.20828 | 55.16711 | 6935 ft | 274 kts | 179° |
| 2026-05-03 20:34 | 25.18942 | 55.17281 | 7312 ft | 286 kts | 152° |
| 2026-05-03 20:35 | 25.17406 | 55.18704 | 7587 ft | 298 kts | 124° |
| 2026-05-03 20:35 | 25.16430 | 55.20768 | 7786 ft | 311 kts | 111° |
| 2026-05-03 20:35 | 25.15571 | 55.22955 | 8337 ft | 313 kts | 114° |
| 2026-05-03 20:35 | 25.14613 | 55.25136 | 8883 ft | 316 kts | 115° |
| 2026-05-03 20:36 | 25.13604 | 55.27290 | 9384 ft | 320 kts | 116° |
| 2026-05-03 20:36 | 25.12561 | 55.29471 | 9808 ft | 327 kts | 116° |
| 2026-05-03 20:36 | 25.11479 | 55.31720 | 10340 ft | 331 kts | 116° |
| 2026-05-03 20:36 | 25.10419 | 55.33931 | 10985 ft | 329 kts | 114° |
| 2026-05-03 20:37 | 25.09456 | 55.36239 | 11569 ft | 330 kts | 111° |
| 2026-05-03 20:37 | 25.08541 | 55.38536 | 12159 ft | 330 kts | 111° |
| 2026-05-03 20:37 | 25.07602 | 55.40856 | 12715 ft | 332 kts | 111° |
| 2026-05-03 20:37 | 25.06675 | 55.43161 | 13222 ft | 336 kts | 110° |
| 2026-05-03 20:38 | 25.05750 | 55.45591 | 13417 ft | 351 kts | 110° |